createdAt,value
2023-05-17T00:02:02.509Z,9.80
2023-05-17T00:12:05.775Z,9.57
2023-05-17T00:22:10.020Z,9.56
2023-05-17T00:32:12.640Z,9.40
2023-05-17T00:42:16.643Z,9.34
2023-05-17T00:52:19.451Z,9.25
2023-05-17T01:02:23.534Z,9.11
2023-05-17T01:12:38.931Z,8.91
2023-05-17T01:22:51.562Z,8.93
2023-05-17T01:32:58.878Z,9.15
2023-05-17T01:43:10.998Z,9.29
2023-05-17T01:53:21.361Z,9.35
2023-05-17T02:03:24.064Z,9.42
2023-05-17T02:13:28.145Z,9.61
2023-05-17T02:23:30.817Z,9.38
2023-05-17T02:33:35.363Z,9.24
2023-05-17T02:43:38.121Z,8.92
2023-05-17T02:53:42.174Z,8.79
2023-05-17T03:03:45.011Z,8.67
2023-05-17T03:13:51.515Z,8.56
2023-05-17T03:23:54.312Z,8.70
2023-05-17T03:33:58.344Z,8.67
2023-05-17T03:44:01.353Z,8.77
2023-05-17T03:54:06.180Z,9.01
2023-05-17T04:04:08.840Z,9.16
2023-05-17T04:14:12.987Z,9.31
2023-05-17T04:24:15.659Z,9.35
2023-05-17T04:34:19.776Z,9.39
2023-05-17T04:44:22.427Z,9.50
2023-05-17T04:54:27.193Z,9.38
2023-05-17T05:04:29.891Z,9.34
2023-05-17T05:14:33.922Z,9.59
2023-05-17T05:24:36.570Z,9.88
2023-05-17T05:34:41.060Z,10.20
2023-05-17T05:44:43.785Z,10.33
2023-05-17T05:54:47.827Z,10.49
2023-05-17T06:04:50.517Z,10.50
2023-05-17T06:14:54.530Z,10.99
2023-05-17T06:24:57.175Z,10.97
2023-05-17T06:35:01.541Z,11.01
2023-05-17T06:45:04.582Z,11.27
2023-05-17T06:55:09.420Z,11.72
2023-05-17T07:05:12.186Z,11.72
2023-05-17T07:15:16.533Z,11.87
2023-05-17T07:25:21.024Z,12.01
2023-05-17T07:35:25.063Z,11.84
2023-05-17T07:45:28.045Z,11.58
2023-05-17T07:55:32.311Z,11.98
2023-05-17T08:05:35.038Z,12.11
2023-05-17T08:15:39.085Z,12.79
2023-05-17T08:25:42.401Z,12.50
2023-05-17T08:35:46.504Z,12.59
2023-05-17T08:45:50.734Z,12.88
2023-05-17T08:56:00.542Z,12.55
2023-05-17T09:06:04.724Z,12.82
2023-05-17T09:16:15.729Z,13.65
2023-05-17T09:26:19.014Z,13.17
2023-05-17T09:36:24.368Z,13.58
2023-05-17T09:46:27.049Z,14.25
2023-05-17T09:56:31.865Z,13.92
2023-05-17T10:06:45.156Z,13.96
2023-05-17T10:16:54.197Z,14.42
2023-05-17T10:26:58.217Z,14.77
2023-05-17T10:37:02.962Z,15.72
2023-05-17T10:47:06.336Z,15.76
2023-05-17T10:57:19.498Z,14.36
2023-05-17T11:07:32.630Z,15.09
2023-05-17T11:17:49.667Z,16.08
2023-05-17T11:27:53.320Z,15.82
2023-05-17T11:38:14.998Z,15.75
2023-05-17T11:48:19.884Z,14.15
2023-05-17T11:58:26.508Z,15.51
2023-05-17T12:08:29.560Z,14.99
2023-05-17T12:18:38.033Z,15.75
2023-05-17T12:28:42.261Z,18.49
2023-05-17T12:38:47.278Z,21.97
2023-05-17T12:48:52.508Z,18.91
2023-05-17T12:59:14.413Z,22.37
2023-05-17T13:09:18.491Z,25.92
2023-05-17T13:19:22.631Z,20.58
2023-05-17T13:29:35.673Z,24.51
2023-05-17T13:39:42.687Z,19.80
2023-05-17T13:49:45.382Z,17.16
2023-05-17T13:59:49.544Z,17.11
2023-05-17T14:09:52.203Z,17.46
2023-05-17T14:19:56.788Z,18.47
2023-05-17T14:30:01.415Z,16.46
2023-05-17T14:40:07.089Z,15.72
2023-05-17T14:50:10.764Z,16.52
2023-05-17T15:00:15.463Z,15.85
2023-05-17T15:10:18.115Z,16.03
2023-05-17T15:20:22.861Z,15.31
2023-05-17T15:30:27.328Z,15.48
2023-05-17T15:40:32.883Z,14.86
2023-05-17T15:50:35.807Z,16.47
2023-05-17T16:00:39.824Z,16.06
2023-05-17T16:10:42.449Z,14.96
2023-05-17T16:20:46.556Z,14.68
2023-05-17T16:30:50.499Z,14.53
2023-05-17T16:40:54.592Z,15.19
2023-05-17T16:50:59.248Z,14.87
2023-05-17T17:01:03.267Z,13.73
2023-05-17T17:11:06.073Z,13.34
2023-05-17T17:21:10.115Z,13.36
2023-05-17T17:31:12.778Z,13.10
2023-05-17T17:41:16.812Z,12.90
2023-05-17T17:51:19.471Z,12.78
2023-05-17T18:01:27.223Z,12.70
2023-05-17T18:11:29.953Z,12.53
2023-05-17T18:21:34.003Z,12.26
2023-05-17T18:31:36.760Z,12.03
2023-05-17T18:41:40.825Z,11.92
2023-05-17T18:51:43.575Z,11.67
2023-05-17T19:01:48.690Z,11.51
2023-05-17T19:11:51.697Z,11.48
2023-05-17T19:21:55.749Z,11.45
2023-05-17T19:31:58.581Z,11.25
2023-05-17T19:42:02.833Z,11.20
2023-05-17T19:52:06.454Z,11.00
2023-05-17T20:02:10.673Z,10.98
2023-05-17T20:12:13.415Z,10.89
2023-05-17T20:22:17.549Z,10.68
2023-05-17T20:32:20.230Z,10.46
2023-05-17T20:42:25.154Z,10.22
2023-05-17T20:52:38.694Z,9.95
2023-05-17T21:02:43.330Z,9.97
2023-05-17T21:12:46.064Z,9.80
2023-05-17T21:22:50.087Z,9.69
2023-05-17T21:32:52.740Z,9.76
2023-05-17T21:42:56.939Z,9.86
2023-05-17T21:52:59.706Z,9.91
2023-05-17T22:03:03.837Z,9.92
2023-05-17T22:13:08.106Z,9.89
2023-05-17T22:23:12.220Z,9.89
2023-05-17T22:33:14.933Z,9.74
2023-05-17T22:43:21.301Z,9.72
2023-05-17T22:53:23.929Z,9.68
2023-05-17T23:03:27.957Z,9.77
2023-05-17T23:13:30.653Z,9.63
2023-05-17T23:23:34.696Z,9.54
2023-05-17T23:33:37.409Z,9.44
2023-05-17T23:43:41.767Z,9.31
2023-05-17T23:53:44.404Z,9.27
